sensor_id;sensor_type;location;lat;lon;timestamp;P1;durP1;ratioP1;P2;durP2;ratioP2
54167;SDS011;68429;50.958;3.592;2023-06-10T00:00:43;6.40;;;5.07;;
54167;SDS011;68429;50.958;3.592;2023-06-10T00:03:09;4.72;;;3.85;;
54167;SDS011;68429;50.958;3.592;2023-06-10T00:05:35;8.05;;;3.85;;
54167;SDS011;68429;50.958;3.592;2023-06-10T00:08:03;7.85;;;4.00;;
54167;SDS011;68429;50.958;3.592;2023-06-10T00:10:32;4.78;;;4.38;;
54167;SDS011;68429;50.958;3.592;2023-06-10T00:13:02;5.05;;;4.00;;
54167;SDS011;68429;50.958;3.592;2023-06-10T00:15:29;7.95;;;3.60;;
54167;SDS011;68429;50.958;3.592;2023-06-10T00:17:55;6.40;;;4.68;;
54167;SDS011;68429;50.958;3.592;2023-06-10T00:20:21;5.78;;;4.03;;
54167;SDS011;68429;50.958;3.592;2023-06-10T00:22:49;4.88;;;4.13;;
54167;SDS011;68429;50.958;3.592;2023-06-10T00:25:15;6.57;;;4.28;;
54167;SDS011;68429;50.958;3.592;2023-06-10T00:27:40;5.72;;;4.15;;
54167;SDS011;68429;50.958;3.592;2023-06-10T00:30:06;8.45;;;4.45;;
54167;SDS011;68429;50.958;3.592;2023-06-10T00:32:35;5.30;;;4.25;;
54167;SDS011;68429;50.958;3.592;2023-06-10T00:35:05;7.45;;;4.30;;
54167;SDS011;68429;50.958;3.592;2023-06-10T00:39:57;9.35;;;4.80;;
54167;SDS011;68429;50.958;3.592;2023-06-10T00:42:23;10.02;;;4.20;;
54167;SDS011;68429;50.958;3.592;2023-06-10T00:44:53;9.77;;;4.63;;
54167;SDS011;68429;50.958;3.592;2023-06-10T00:47:19;7.47;;;3.78;;
54167;SDS011;68429;50.958;3.592;2023-06-10T00:49:45;7.57;;;4.75;;
54167;SDS011;68429;50.958;3.592;2023-06-10T00:52:12;9.90;;;4.78;;
54167;SDS011;68429;50.958;3.592;2023-06-10T00:54:40;8.13;;;5.07;;
54167;SDS011;68429;50.958;3.592;2023-06-10T00:57:05;8.10;;;4.22;;
54167;SDS011;68429;50.958;3.592;2023-06-10T00:59:31;7.07;;;4.57;;
54167;SDS011;68429;50.958;3.592;2023-06-10T01:01:57;7.00;;;4.80;;
54167;SDS011;68429;50.958;3.592;2023-06-10T01:04:23;6.25;;;4.55;;
54167;SDS011;68429;50.958;3.592;2023-06-10T01:10:15;5.50;;;4.32;;
54167;SDS011;68429;50.958;3.592;2023-06-10T01:12:46;6.70;;;4.15;;
54167;SDS011;68429;50.958;3.592;2023-06-10T01:15:21;8.27;;;4.53;;
54167;SDS011;68429;50.958;3.592;2023-06-10T01:18:01;6.03;;;4.45;;
54167;SDS011;68429;50.958;3.592;2023-06-10T01:20:28;5.80;;;4.60;;
54167;SDS011;68429;50.958;3.592;2023-06-10T01:22:57;7.43;;;5.50;;
54167;SDS011;68429;50.958;3.592;2023-06-10T01:25:27;7.75;;;5.45;;
54167;SDS011;68429;50.958;3.592;2023-06-10T01:28:04;8.07;;;5.65;;
54167;SDS011;68429;50.958;3.592;2023-06-10T01:30:41;5.30;;;4.80;;
54167;SDS011;68429;50.958;3.592;2023-06-10T01:33:13;5.70;;;4.50;;
54167;SDS011;68429;50.958;3.592;2023-06-10T01:35:42;7.28;;;4.60;;
54167;SDS011;68429;50.958;3.592;2023-06-10T01:38:10;5.13;;;4.63;;
54167;SDS011;68429;50.958;3.592;2023-06-10T01:40:39;7.82;;;5.35;;
54167;SDS011;68429;50.958;3.592;2023-06-10T01:43:06;5.00;;;4.30;;
54167;SDS011;68429;50.958;3.592;2023-06-10T01:45:31;6.72;;;4.80;;
54167;SDS011;68429;50.958;3.592;2023-06-10T01:47:57;7.80;;;4.68;;
54167;SDS011;68429;50.958;3.592;2023-06-10T01:50:23;5.80;;;5.10;;
54167;SDS011;68429;50.958;3.592;2023-06-10T01:52:48;6.00;;;4.70;;
54167;SDS011;68429;50.958;3.592;2023-06-10T01:55:14;5.00;;;4.38;;
54167;SDS011;68429;50.958;3.592;2023-06-10T01:57:40;11.95;;;7.00;;
54167;SDS011;68429;50.958;3.592;2023-06-10T02:00:05;5.13;;;4.57;;
54167;SDS011;68429;50.958;3.592;2023-06-10T02:02:32;6.00;;;4.78;;
54167;SDS011;68429;50.958;3.592;2023-06-10T02:04:58;5.70;;;4.93;;
54167;SDS011;68429;50.958;3.592;2023-06-10T02:07:25;5.05;;;4.55;;
54167;SDS011;68429;50.958;3.592;2023-06-10T02:09:50;4.80;;;4.30;;
54167;SDS011;68429;50.958;3.592;2023-06-10T02:12:16;5.53;;;4.93;;
54167;SDS011;68429;50.958;3.592;2023-06-10T02:14:42;13.48;;;4.78;;
54167;SDS011;68429;50.958;3.592;2023-06-10T02:17:07;5.63;;;4.50;;
54167;SDS011;68429;50.958;3.592;2023-06-10T02:19:37;5.55;;;5.05;;
54167;SDS011;68429;50.958;3.592;2023-06-10T02:22:07;12.20;;;5.30;;
54167;SDS011;68429;50.958;3.592;2023-06-10T02:24:33;5.50;;;4.68;;
54167;SDS011;68429;50.958;3.592;2023-06-10T02:27:00;7.18;;;4.97;;
54167;SDS011;68429;50.958;3.592;2023-06-10T02:29:26;7.50;;;4.93;;
54167;SDS011;68429;50.958;3.592;2023-06-10T02:31:52;6.72;;;5.20;;
54167;SDS011;68429;50.958;3.592;2023-06-10T02:34:18;8.32;;;5.10;;
54167;SDS011;68429;50.958;3.592;2023-06-10T02:36:43;6.90;;;4.85;;
54167;SDS011;68429;50.958;3.592;2023-06-10T02:39:09;5.88;;;4.72;;
54167;SDS011;68429;50.958;3.592;2023-06-10T02:41:35;7.32;;;5.43;;
54167;SDS011;68429;50.958;3.592;2023-06-10T02:44:01;6.32;;;5.28;;
54167;SDS011;68429;50.958;3.592;2023-06-10T02:46:26;5.70;;;4.30;;
54167;SDS011;68429;50.958;3.592;2023-06-10T02:48:53;5.47;;;4.97;;
54167;SDS011;68429;50.958;3.592;2023-06-10T02:51:19;6.22;;;4.88;;
54167;SDS011;68429;50.958;3.592;2023-06-10T02:53:46;6.97;;;5.40;;
54167;SDS011;68429;50.958;3.592;2023-06-10T02:56:11;6.03;;;4.90;;
54167;SDS011;68429;50.958;3.592;2023-06-10T02:58:38;7.00;;;5.35;;
54167;SDS011;68429;50.958;3.592;2023-06-10T03:01:04;8.27;;;5.65;;
54167;SDS011;68429;50.958;3.592;2023-06-10T03:03:30;7.10;;;4.72;;
54167;SDS011;68429;50.958;3.592;2023-06-10T03:05:58;7.97;;;5.10;;
54167;SDS011;68429;50.958;3.592;2023-06-10T03:08:24;9.82;;;5.20;;
54167;SDS011;68429;50.958;3.592;2023-06-10T03:10:50;7.15;;;5.25;;
54167;SDS011;68429;50.958;3.592;2023-06-10T03:13:15;5.20;;;4.70;;
54167;SDS011;68429;50.958;3.592;2023-06-10T03:15:41;6.18;;;4.80;;
54167;SDS011;68429;50.958;3.592;2023-06-10T03:18:07;8.02;;;5.50;;
54167;SDS011;68429;50.958;3.592;2023-06-10T03:20:33;7.20;;;5.05;;
54167;SDS011;68429;50.958;3.592;2023-06-10T03:23:02;8.20;;;5.43;;
54167;SDS011;68429;50.958;3.592;2023-06-10T03:25:27;5.63;;;5.00;;
54167;SDS011;68429;50.958;3.592;2023-06-10T03:27:53;9.50;;;5.70;;
54167;SDS011;68429;50.958;3.592;2023-06-10T03:30:19;7.28;;;5.78;;
54167;SDS011;68429;50.958;3.592;2023-06-10T03:32:45;9.20;;;5.20;;
54167;SDS011;68429;50.958;3.592;2023-06-10T03:35:10;6.85;;;5.38;;
54167;SDS011;68429;50.958;3.592;2023-06-10T03:37:36;24.50;;;5.57;;
54167;SDS011;68429;50.958;3.592;2023-06-10T03:40:02;8.00;;;6.28;;
54167;SDS011;68429;50.958;3.592;2023-06-10T03:42:28;10.70;;;5.80;;
54167;SDS011;68429;50.958;3.592;2023-06-10T03:44:54;6.60;;;5.40;;
54167;SDS011;68429;50.958;3.592;2023-06-10T03:47:21;8.10;;;5.38;;
54167;SDS011;68429;50.958;3.592;2023-06-10T03:49:49;6.07;;;5.43;;
54167;SDS011;68429;50.958;3.592;2023-06-10T03:52:15;6.22;;;5.30;;
54167;SDS011;68429;50.958;3.592;2023-06-10T03:54:42;14.60;;;5.90;;
54167;SDS011;68429;50.958;3.592;2023-06-10T03:57:08;7.55;;;5.97;;
54167;SDS011;68429;50.958;3.592;2023-06-10T03:59:33;7.85;;;5.60;;
54167;SDS011;68429;50.958;3.592;2023-06-10T04:01:59;9.20;;;5.57;;
54167;SDS011;68429;50.958;3.592;2023-06-10T04:04:26;9.07;;;5.20;;
54167;SDS011;68429;50.958;3.592;2023-06-10T04:06:52;9.75;;;5.20;;
54167;SDS011;68429;50.958;3.592;2023-06-10T04:09:18;7.20;;;5.65;;
54167;SDS011;68429;50.958;3.592;2023-06-10T04:11:44;6.13;;;5.32;;
54167;SDS011;68429;50.958;3.592;2023-06-10T04:14:09;6.72;;;5.47;;
54167;SDS011;68429;50.958;3.592;2023-06-10T04:16:35;7.35;;;5.95;;
54167;SDS011;68429;50.958;3.592;2023-06-10T04:19:01;7.22;;;5.70;;
54167;SDS011;68429;50.958;3.592;2023-06-10T04:21:26;8.10;;;5.72;;
54167;SDS011;68429;50.958;3.592;2023-06-10T04:23:52;6.82;;;5.90;;
54167;SDS011;68429;50.958;3.592;2023-06-10T04:26:18;21.52;;;6.00;;
54167;SDS011;68429;50.958;3.592;2023-06-10T04:28:44;6.72;;;5.43;;
54167;SDS011;68429;50.958;3.592;2023-06-10T04:31:09;8.88;;;5.80;;
54167;SDS011;68429;50.958;3.592;2023-06-10T04:33:35;6.95;;;6.15;;
54167;SDS011;68429;50.958;3.592;2023-06-10T04:36:01;8.70;;;5.95;;
54167;SDS011;68429;50.958;3.592;2023-06-10T04:38:27;10.82;;;6.32;;
54167;SDS011;68429;50.958;3.592;2023-06-10T04:40:53;7.22;;;6.20;;
54167;SDS011;68429;50.958;3.592;2023-06-10T04:43:19;7.97;;;6.07;;
54167;SDS011;68429;50.958;3.592;2023-06-10T04:45:44;8.00;;;6.60;;
54167;SDS011;68429;50.958;3.592;2023-06-10T04:48:10;6.07;;;5.50;;
54167;SDS011;68429;50.958;3.592;2023-06-10T04:50:36;12.60;;;6.07;;
54167;SDS011;68429;50.958;3.592;2023-06-10T04:53:02;10.45;;;5.85;;
54167;SDS011;68429;50.958;3.592;2023-06-10T04:55:28;10.18;;;5.97;;
54167;SDS011;68429;50.958;3.592;2023-06-10T04:57:54;11.25;;;7.03;;
54167;SDS011;68429;50.958;3.592;2023-06-10T05:00:20;6.38;;;5.78;;
54167;SDS011;68429;50.958;3.592;2023-06-10T05:02:46;8.77;;;6.32;;
54167;SDS011;68429;50.958;3.592;2023-06-10T05:05:19;7.63;;;6.18;;
54167;SDS011;68429;50.958;3.592;2023-06-10T05:07:44;10.05;;;7.07;;
54167;SDS011;68429;50.958;3.592;2023-06-10T05:10:10;7.03;;;5.70;;
54167;SDS011;68429;50.958;3.592;2023-06-10T05:12:37;10.05;;;6.35;;
54167;SDS011;68429;50.958;3.592;2023-06-10T05:15:04;5.70;;;5.20;;
54167;SDS011;68429;50.958;3.592;2023-06-10T05:17:31;6.78;;;6.00;;
54167;SDS011;68429;50.958;3.592;2023-06-10T05:19:57;6.82;;;5.55;;
54167;SDS011;68429;50.958;3.592;2023-06-10T05:22:22;6.60;;;5.85;;
54167;SDS011;68429;50.958;3.592;2023-06-10T05:24:49;7.20;;;6.50;;
54167;SDS011;68429;50.958;3.592;2023-06-10T05:27:16;6.72;;;6.03;;
54167;SDS011;68429;50.958;3.592;2023-06-10T05:29:42;9.73;;;6.30;;
54167;SDS011;68429;50.958;3.592;2023-06-10T05:32:08;7.03;;;5.75;;
54167;SDS011;68429;50.958;3.592;2023-06-10T05:34:33;8.68;;;5.43;;
54167;SDS011;68429;50.958;3.592;2023-06-10T05:36:59;8.43;;;5.88;;
54167;SDS011;68429;50.958;3.592;2023-06-10T05:39:25;7.50;;;6.32;;
54167;SDS011;68429;50.958;3.592;2023-06-10T05:41:50;8.82;;;6.07;;
54167;SDS011;68429;50.958;3.592;2023-06-10T05:44:16;9.82;;;6.63;;
54167;SDS011;68429;50.958;3.592;2023-06-10T05:46:42;7.20;;;5.53;;
54167;SDS011;68429;50.958;3.592;2023-06-10T05:49:07;10.18;;;6.18;;
54167;SDS011;68429;50.958;3.592;2023-06-10T05:51:33;8.48;;;5.75;;
54167;SDS011;68429;50.958;3.592;2023-06-10T05:53:58;8.10;;;6.07;;
54167;SDS011;68429;50.958;3.592;2023-06-10T05:56:24;7.25;;;6.00;;
54167;SDS011;68429;50.958;3.592;2023-06-10T05:58:50;6.68;;;5.75;;
54167;SDS011;68429;50.958;3.592;2023-06-10T06:01:16;6.35;;;5.60;;
54167;SDS011;68429;50.958;3.592;2023-06-10T06:03:42;10.55;;;5.60;;
54167;SDS011;68429;50.958;3.592;2023-06-10T06:06:08;6.18;;;5.50;;
54167;SDS011;68429;50.958;3.592;2023-06-10T06:08:33;6.50;;;5.78;;
54167;SDS011;68429;50.958;3.592;2023-06-10T06:10:59;5.85;;;5.30;;
54167;SDS011;68429;50.958;3.592;2023-06-10T06:13:24;6.20;;;5.60;;
54167;SDS011;68429;50.958;3.592;2023-06-10T06:15:50;7.82;;;5.57;;
54167;SDS011;68429;50.958;3.592;2023-06-10T06:18:16;9.85;;;6.43;;
54167;SDS011;68429;50.958;3.592;2023-06-10T06:20:43;11.32;;;6.60;;
54167;SDS011;68429;50.958;3.592;2023-06-10T06:23:09;7.75;;;5.85;;
54167;SDS011;68429;50.958;3.592;2023-06-10T06:25:36;9.23;;;6.05;;
54167;SDS011;68429;50.958;3.592;2023-06-10T06:28:04;8.05;;;5.80;;
54167;SDS011;68429;50.958;3.592;2023-06-10T06:30:31;6.63;;;5.25;;
54167;SDS011;68429;50.958;3.592;2023-06-10T06:32:57;8.40;;;6.18;;
54167;SDS011;68429;50.958;3.592;2023-06-10T06:35:22;12.73;;;5.80;;
54167;SDS011;68429;50.958;3.592;2023-06-10T06:37:48;11.80;;;5.65;;
54167;SDS011;68429;50.958;3.592;2023-06-10T06:40:14;9.02;;;6.05;;
54167;SDS011;68429;50.958;3.592;2023-06-10T06:42:39;8.70;;;5.30;;
54167;SDS011;68429;50.958;3.592;2023-06-10T06:45:05;6.88;;;5.20;;
54167;SDS011;68429;50.958;3.592;2023-06-10T06:47:31;6.75;;;5.30;;
54167;SDS011;68429;50.958;3.592;2023-06-10T06:49:57;7.85;;;5.85;;
54167;SDS011;68429;50.958;3.592;2023-06-10T06:52:22;6.70;;;5.32;;
54167;SDS011;68429;50.958;3.592;2023-06-10T06:54:51;5.63;;;5.03;;
54167;SDS011;68429;50.958;3.592;2023-06-10T06:57:17;7.32;;;5.15;;
54167;SDS011;68429;50.958;3.592;2023-06-10T06:59:43;7.30;;;5.43;;
54167;SDS011;68429;50.958;3.592;2023-06-10T07:02:08;6.97;;;4.85;;
54167;SDS011;68429;50.958;3.592;2023-06-10T07:04:34;10.18;;;5.20;;
54167;SDS011;68429;50.958;3.592;2023-06-10T07:07:00;7.05;;;5.50;;
54167;SDS011;68429;50.958;3.592;2023-06-10T07:09:26;7.90;;;5.40;;
54167;SDS011;68429;50.958;3.592;2023-06-10T07:11:53;5.30;;;4.80;;
54167;SDS011;68429;50.958;3.592;2023-06-10T07:14:18;5.18;;;4.63;;
54167;SDS011;68429;50.958;3.592;2023-06-10T07:16:44;5.47;;;4.97;;
54167;SDS011;68429;50.958;3.592;2023-06-10T07:19:11;6.30;;;4.50;;
54167;SDS011;68429;50.958;3.592;2023-06-10T07:21:36;12.18;;;4.95;;
54167;SDS011;68429;50.958;3.592;2023-06-10T07:24:03;9.02;;;5.50;;
54167;SDS011;68429;50.958;3.592;2023-06-10T07:26:29;5.97;;;4.95;;
54167;SDS011;68429;50.958;3.592;2023-06-10T07:28:54;9.20;;;5.28;;
54167;SDS011;68429;50.958;3.592;2023-06-10T07:31:20;6.90;;;4.60;;
54167;SDS011;68429;50.958;3.592;2023-06-10T07:33:46;6.85;;;4.88;;
54167;SDS011;68429;50.958;3.592;2023-06-10T07:36:12;10.77;;;5.75;;
54167;SDS011;68429;50.958;3.592;2023-06-10T07:38:38;5.55;;;4.97;;
54167;SDS011;68429;50.958;3.592;2023-06-10T07:41:03;5.57;;;4.82;;
54167;SDS011;68429;50.958;3.592;2023-06-10T07:43:29;7.28;;;5.20;;
54167;SDS011;68429;50.958;3.592;2023-06-10T07:45:55;5.78;;;4.60;;
54167;SDS011;68429;50.958;3.592;2023-06-10T07:48:20;11.52;;;5.35;;
54167;SDS011;68429;50.958;3.592;2023-06-10T07:50:46;8.27;;;4.70;;
54167;SDS011;68429;50.958;3.592;2023-06-10T07:53:12;5.93;;;4.68;;
54167;SDS011;68429;50.958;3.592;2023-06-10T07:55:38;6.50;;;5.10;;
54167;SDS011;68429;50.958;3.592;2023-06-10T07:58:03;8.32;;;4.68;;
54167;SDS011;68429;50.958;3.592;2023-06-10T08:00:29;6.20;;;4.47;;
54167;SDS011;68429;50.958;3.592;2023-06-10T08:02:55;9.43;;;5.07;;
54167;SDS011;68429;50.958;3.592;2023-06-10T08:05:20;7.63;;;5.28;;
54167;SDS011;68429;50.958;3.592;2023-06-10T08:07:46;6.60;;;4.95;;
54167;SDS011;68429;50.958;3.592;2023-06-10T08:10:12;5.30;;;4.72;;
54167;SDS011;68429;50.958;3.592;2023-06-10T08:12:37;5.68;;;4.63;;
54167;SDS011;68429;50.958;3.592;2023-06-10T08:15:03;5.05;;;4.55;;
54167;SDS011;68429;50.958;3.592;2023-06-10T08:17:30;5.60;;;5.03;;
54167;SDS011;68429;50.958;3.592;2023-06-10T08:19:55;5.53;;;4.60;;
54167;SDS011;68429;50.958;3.592;2023-06-10T08:22:21;5.22;;;4.63;;
54167;SDS011;68429;50.958;3.592;2023-06-10T08:24:47;6.45;;;4.90;;
54167;SDS011;68429;50.958;3.592;2023-06-10T08:27:13;6.55;;;4.65;;
54167;SDS011;68429;50.958;3.592;2023-06-10T08:29:39;5.97;;;5.05;;
54167;SDS011;68429;50.958;3.592;2023-06-10T08:32:05;6.32;;;4.50;;
54167;SDS011;68429;50.958;3.592;2023-06-10T08:34:33;8.40;;;4.07;;
54167;SDS011;68429;50.958;3.592;2023-06-10T08:37:00;10.38;;;4.43;;
54167;SDS011;68429;50.958;3.592;2023-06-10T08:39:25;6.15;;;4.55;;
54167;SDS011;68429;50.958;3.592;2023-06-10T08:42:00;4.90;;;4.25;;
54167;SDS011;68429;50.958;3.592;2023-06-10T08:44:29;4.78;;;4.30;;
54167;SDS011;68429;50.958;3.592;2023-06-10T08:46:59;9.45;;;4.75;;
54167;SDS011;68429;50.958;3.592;2023-06-10T08:49:26;4.93;;;4.18;;
54167;SDS011;68429;50.958;3.592;2023-06-10T08:51:58;5.13;;;4.25;;
54167;SDS011;68429;50.958;3.592;2023-06-10T08:54:27;5.20;;;4.60;;
54167;SDS011;68429;50.958;3.592;2023-06-10T08:56:57;5.43;;;4.38;;
54167;SDS011;68429;50.958;3.592;2023-06-10T08:59:24;7.35;;;4.45;;
54167;SDS011;68429;50.958;3.592;2023-06-10T09:01:50;5.50;;;3.72;;
54167;SDS011;68429;50.958;3.592;2023-06-10T09:04:17;6.30;;;3.90;;
54167;SDS011;68429;50.958;3.592;2023-06-10T09:06:44;8.50;;;4.28;;
54167;SDS011;68429;50.958;3.592;2023-06-10T09:09:11;5.45;;;4.07;;
54167;SDS011;68429;50.958;3.592;2023-06-10T09:11:38;4.10;;;3.55;;
54167;SDS011;68429;50.958;3.592;2023-06-10T09:14:06;8.88;;;3.83;;
54167;SDS011;68429;50.958;3.592;2023-06-10T09:16:31;14.38;;;3.80;;
54167;SDS011;68429;50.958;3.592;2023-06-10T09:18:57;5.50;;;3.42;;
54167;SDS011;68429;50.958;3.592;2023-06-10T09:21:24;7.53;;;4.03;;
54167;SDS011;68429;50.958;3.592;2023-06-10T09:23:50;3.85;;;3.30;;
54167;SDS011;68429;50.958;3.592;2023-06-10T09:26:16;5.25;;;4.15;;
54167;SDS011;68429;50.958;3.592;2023-06-10T09:28:43;5.15;;;3.75;;
54167;SDS011;68429;50.958;3.592;2023-06-10T09:31:12;8.18;;;3.60;;
54167;SDS011;68429;50.958;3.592;2023-06-10T09:33:39;3.58;;;3.28;;
54167;SDS011;68429;50.958;3.592;2023-06-10T09:36:05;6.60;;;3.70;;
54167;SDS011;68429;50.958;3.592;2023-06-10T09:38:32;7.78;;;3.35;;
54167;SDS011;68429;50.958;3.592;2023-06-10T09:40:59;3.13;;;2.90;;
54167;SDS011;68429;50.958;3.592;2023-06-10T09:43:38;4.75;;;3.10;;
54167;SDS011;68429;50.958;3.592;2023-06-10T09:46:15;6.03;;;3.05;;
54167;SDS011;68429;50.958;3.592;2023-06-10T09:48:45;3.72;;;3.40;;
54167;SDS011;68429;50.958;3.592;2023-06-10T09:51:13;5.05;;;3.22;;
54167;SDS011;68429;50.958;3.592;2023-06-10T09:53:41;4.05;;;2.80;;
54167;SDS011;68429;50.958;3.592;2023-06-10T09:56:07;3.10;;;2.80;;
54167;SDS011;68429;50.958;3.592;2023-06-10T09:58:37;5.50;;;3.17;;
54167;SDS011;68429;50.958;3.592;2023-06-10T10:01:08;5.53;;;3.25;;
54167;SDS011;68429;50.958;3.592;2023-06-10T10:03:48;7.18;;;3.17;;
54167;SDS011;68429;50.958;3.592;2023-06-10T10:06:16;5.20;;;3.30;;
54167;SDS011;68429;50.958;3.592;2023-06-10T10:08:42;5.97;;;3.83;;
54167;SDS011;68429;50.958;3.592;2023-06-10T10:11:09;4.25;;;2.90;;
54167;SDS011;68429;50.958;3.592;2023-06-10T10:13:35;5.82;;;3.58;;
54167;SDS011;68429;50.958;3.592;2023-06-10T10:16:04;5.25;;;3.28;;
54167;SDS011;68429;50.958;3.592;2023-06-10T10:18:35;4.80;;;3.17;;
54167;SDS011;68429;50.958;3.592;2023-06-10T10:21:05;4.47;;;3.47;;
54167;SDS011;68429;50.958;3.592;2023-06-10T10:26:37;5.72;;;4.30;;
54167;SDS011;68429;50.958;3.592;2023-06-10T10:29:10;4.68;;;3.05;;
54167;SDS011;68429;50.958;3.592;2023-06-10T10:31:58;6.10;;;3.10;;
54167;SDS011;68429;50.958;3.592;2023-06-10T10:34:30;5.07;;;3.28;;
54167;SDS011;68429;50.958;3.592;2023-06-10T10:37:02;5.05;;;3.50;;
54167;SDS011;68429;50.958;3.592;2023-06-10T10:39:28;8.10;;;4.43;;
54167;SDS011;68429;50.958;3.592;2023-06-10T10:41:55;6.22;;;3.65;;
54167;SDS011;68429;50.958;3.592;2023-06-10T10:44:21;4.22;;;3.63;;
54167;SDS011;68429;50.958;3.592;2023-06-10T10:46:50;3.80;;;3.28;;
54167;SDS011;68429;50.958;3.592;2023-06-10T10:51:58;11.88;;;3.15;;
54167;SDS011;68429;50.958;3.592;2023-06-10T10:54:32;6.72;;;3.45;;
54167;SDS011;68429;50.958;3.592;2023-06-10T10:57:15;5.57;;;3.53;;
54167;SDS011;68429;50.958;3.592;2023-06-10T11:02:32;7.20;;;2.90;;
54167;SDS011;68429;50.958;3.592;2023-06-10T11:04:58;3.22;;;2.90;;
54167;SDS011;68429;50.958;3.592;2023-06-10T11:07:25;10.20;;;3.08;;
54167;SDS011;68429;50.958;3.592;2023-06-10T11:10:10;2.53;;;2.33;;
54167;SDS011;68429;50.958;3.592;2023-06-10T11:15:12;3.42;;;2.90;;
54167;SDS011;68429;50.958;3.592;2023-06-10T11:18:06;3.00;;;2.70;;
54167;SDS011;68429;50.958;3.592;2023-06-10T11:28:41;8.20;;;3.17;;
54167;SDS011;68429;50.958;3.592;2023-06-10T11:31:28;3.70;;;3.40;;
54167;SDS011;68429;50.958;3.592;2023-06-10T11:33:56;4.25;;;3.38;;
54167;SDS011;68429;50.958;3.592;2023-06-10T11:36:30;6.15;;;3.08;;
54167;SDS011;68429;50.958;3.592;2023-06-10T11:38:57;4.50;;;4.10;;
54167;SDS011;68429;50.958;3.592;2023-06-10T11:41:27;5.30;;;3.55;;
54167;SDS011;68429;50.958;3.592;2023-06-10T11:43:54;4.38;;;3.60;;
54167;SDS011;68429;50.958;3.592;2023-06-10T11:46:23;6.57;;;3.28;;
54167;SDS011;68429;50.958;3.592;2023-06-10T11:48:52;4.30;;;3.17;;
54167;SDS011;68429;50.958;3.592;2023-06-10T11:51:19;3.92;;;2.72;;
54167;SDS011;68429;50.958;3.592;2023-06-10T11:53:49;3.42;;;3.13;;
54167;SDS011;68429;50.958;3.592;2023-06-10T11:56:27;3.53;;;3.10;;
54167;SDS011;68429;50.958;3.592;2023-06-10T11:59:04;5.10;;;4.55;;
54167;SDS011;68429;50.958;3.592;2023-06-10T12:01:36;4.55;;;3.13;;
54167;SDS011;68429;50.958;3.592;2023-06-10T12:06:47;3.13;;;2.83;;
54167;SDS011;68429;50.958;3.592;2023-06-10T12:09:15;6.07;;;2.88;;
54167;SDS011;68429;50.958;3.592;2023-06-10T12:11:41;7.60;;;3.17;;
54167;SDS011;68429;50.958;3.592;2023-06-10T12:14:09;3.95;;;3.08;;
54167;SDS011;68429;50.958;3.592;2023-06-10T12:16:35;3.78;;;3.28;;
54167;SDS011;68429;50.958;3.592;2023-06-10T12:19:01;4.85;;;3.30;;
54167;SDS011;68429;50.958;3.592;2023-06-10T12:21:28;4.93;;;3.30;;
54167;SDS011;68429;50.958;3.592;2023-06-10T12:26:53;9.88;;;3.40;;
54167;SDS011;68429;50.958;3.592;2023-06-10T12:29:24;7.30;;;2.88;;
54167;SDS011;68429;50.958;3.592;2023-06-10T12:31:57;3.20;;;2.83;;
54167;SDS011;68429;50.958;3.592;2023-06-10T12:34:39;3.88;;;3.33;;
54167;SDS011;68429;50.958;3.592;2023-06-10T12:37:06;5.32;;;4.18;;
54167;SDS011;68429;50.958;3.592;2023-06-10T12:39:38;8.27;;;3.40;;
54167;SDS011;68429;50.958;3.592;2023-06-10T12:42:04;3.08;;;2.55;;
54167;SDS011;68429;50.958;3.592;2023-06-10T12:44:34;4.43;;;3.50;;
54167;SDS011;68429;50.958;3.592;2023-06-10T12:47:12;6.25;;;3.22;;
54167;SDS011;68429;50.958;3.592;2023-06-10T12:49:38;7.85;;;3.50;;
54167;SDS011;68429;50.958;3.592;2023-06-10T12:52:04;3.40;;;3.10;;
54167;SDS011;68429;50.958;3.592;2023-06-10T12:54:30;6.43;;;3.90;;
54167;SDS011;68429;50.958;3.592;2023-06-10T12:56:56;16.33;;;4.32;;
54167;SDS011;68429;50.958;3.592;2023-06-10T12:59:22;4.93;;;3.45;;
54167;SDS011;68429;50.958;3.592;2023-06-10T13:01:52;6.28;;;2.92;;
54167;SDS011;68429;50.958;3.592;2023-06-10T13:04:19;3.25;;;2.95;;
54167;SDS011;68429;50.958;3.592;2023-06-10T13:06:45;5.32;;;3.05;;
54167;SDS011;68429;50.958;3.592;2023-06-10T13:09:12;3.38;;;3.03;;
54167;SDS011;68429;50.958;3.592;2023-06-10T13:11:39;4.68;;;3.08;;
54167;SDS011;68429;50.958;3.592;2023-06-10T13:14:05;3.00;;;2.78;;
54167;SDS011;68429;50.958;3.592;2023-06-10T13:16:31;5.93;;;3.10;;
54167;SDS011;68429;50.958;3.592;2023-06-10T13:18:57;4.30;;;2.85;;
54167;SDS011;68429;50.958;3.592;2023-06-10T13:21:24;4.88;;;3.17;;
54167;SDS011;68429;50.958;3.592;2023-06-10T13:23:50;5.25;;;2.92;;
54167;SDS011;68429;50.958;3.592;2023-06-10T13:26:16;5.30;;;3.00;;
54167;SDS011;68429;50.958;3.592;2023-06-10T13:28:45;3.58;;;2.97;;
54167;SDS011;68429;50.958;3.592;2023-06-10T13:31:10;3.22;;;2.92;;
54167;SDS011;68429;50.958;3.592;2023-06-10T13:33:36;3.50;;;3.20;;
54167;SDS011;68429;50.958;3.592;2023-06-10T13:36:02;3.00;;;2.67;;
54167;SDS011;68429;50.958;3.592;2023-06-10T13:38:28;5.85;;;2.90;;
54167;SDS011;68429;50.958;3.592;2023-06-10T13:40:54;4.10;;;2.97;;
54167;SDS011;68429;50.958;3.592;2023-06-10T13:43:19;5.80;;;3.00;;
54167;SDS011;68429;50.958;3.592;2023-06-10T13:45:46;4.45;;;2.67;;
54167;SDS011;68429;50.958;3.592;2023-06-10T13:48:11;3.45;;;3.05;;
54167;SDS011;68429;50.958;3.592;2023-06-10T13:50:37;8.55;;;3.10;;
54167;SDS011;68429;50.958;3.592;2023-06-10T13:53:03;4.75;;;3.38;;
54167;SDS011;68429;50.958;3.592;2023-06-10T13:55:29;3.47;;;3.17;;
54167;SDS011;68429;50.958;3.592;2023-06-10T13:57:54;5.75;;;3.10;;
54167;SDS011;68429;50.958;3.592;2023-06-10T14:00:20;3.85;;;3.28;;
54167;SDS011;68429;50.958;3.592;2023-06-10T14:02:46;8.82;;;3.35;;
54167;SDS011;68429;50.958;3.592;2023-06-10T14:05:12;5.78;;;3.58;;
54167;SDS011;68429;50.958;3.592;2023-06-10T14:07:37;6.90;;;3.47;;
54167;SDS011;68429;50.958;3.592;2023-06-10T14:10:05;3.45;;;3.13;;
54167;SDS011;68429;50.958;3.592;2023-06-10T14:12:30;7.55;;;3.45;;
54167;SDS011;68429;50.958;3.592;2023-06-10T14:14:56;8.60;;;3.75;;
54167;SDS011;68429;50.958;3.592;2023-06-10T14:17:22;3.92;;;3.60;;
54167;SDS011;68429;50.958;3.592;2023-06-10T14:19:48;6.28;;;3.78;;
54167;SDS011;68429;50.958;3.592;2023-06-10T14:22:14;3.30;;;3.00;;
54167;SDS011;68429;50.958;3.592;2023-06-10T14:24:39;3.75;;;3.22;;
54167;SDS011;68429;50.958;3.592;2023-06-10T14:27:05;3.95;;;3.00;;
54167;SDS011;68429;50.958;3.592;2023-06-10T14:29:31;10.38;;;3.17;;
54167;SDS011;68429;50.958;3.592;2023-06-10T14:31:58;8.07;;;3.40;;
54167;SDS011;68429;50.958;3.592;2023-06-10T14:34:24;3.10;;;2.90;;
54167;SDS011;68429;50.958;3.592;2023-06-10T14:36:54;4.25;;;3.30;;
54167;SDS011;68429;50.958;3.592;2023-06-10T14:39:20;5.05;;;2.90;;
54167;SDS011;68429;50.958;3.592;2023-06-10T14:41:45;7.38;;;3.63;;
54167;SDS011;68429;50.958;3.592;2023-06-10T14:44:11;3.97;;;3.25;;
54167;SDS011;68429;50.958;3.592;2023-06-10T14:46:37;4.22;;;3.40;;
54167;SDS011;68429;50.958;3.592;2023-06-10T14:49:02;4.35;;;3.00;;
54167;SDS011;68429;50.958;3.592;2023-06-10T14:51:28;3.45;;;3.13;;
54167;SDS011;68429;50.958;3.592;2023-06-10T14:53:53;7.35;;;3.60;;
54167;SDS011;68429;50.958;3.592;2023-06-10T14:56:19;3.75;;;3.45;;
54167;SDS011;68429;50.958;3.592;2023-06-10T14:58:45;5.50;;;3.33;;
54167;SDS011;68429;50.958;3.592;2023-06-10T15:01:10;3.50;;;3.20;;
54167;SDS011;68429;50.958;3.592;2023-06-10T15:03:36;3.78;;;3.00;;
54167;SDS011;68429;50.958;3.592;2023-06-10T15:06:02;10.07;;;3.38;;
54167;SDS011;68429;50.958;3.592;2023-06-10T15:08:28;3.55;;;3.22;;
54167;SDS011;68429;50.958;3.592;2023-06-10T15:10:53;6.20;;;3.50;;
54167;SDS011;68429;50.958;3.592;2023-06-10T15:13:19;5.28;;;3.42;;
54167;SDS011;68429;50.958;3.592;2023-06-10T15:15:45;6.20;;;3.13;;